Time;durP1;ratioP1;P1;durP2;ratioP2;P2;SDS_P1;SDS_P2;PMS_P1;PMS_P2;Temp;Humidity;BMP_temperature;BMP_pressure;BME280_temperature;BME280_humidity;BME280_pressure;Samples;Min_cycle;Max_cycle;Signal;HPM_P1;HPM_P2
2021/06/26 00:10:56;;;;;;;11.93;4.43;;;;;;;18.12;100.00;100565.36;714294;1177;114142;-71
2021/06/26 00:25:58;;;;;;;5.53;4.00;;;;;;;17.82;100.00;100580.31;714215;1189;115069;-73
2021/06/26 00:41:00;;;;;;;5.28;4.15;;;;;;;17.75;100.00;100578.34;715710;1203;114102;-71
2021/06/26 00:56:03;;;;;;;7.70;4.98;;;;;;;17.59;100.00;100597.84;714229;1206;114166;-70
2021/06/26 01:11:06;;;;;;;5.73;4.60;;;;;;;17.43;100.00;100612.00;714109;1203;114203;-73
2021/06/26 01:26:08;;;;;;;6.50;5.28;;;;;;;17.42;100.00;100615.65;714196;1182;114362;-73
2021/06/26 01:41:10;;;;;;;9.38;6.13;;;;;;;17.38;100.00;100581.68;714321;1200;115012;-71
2021/06/26 01:56:12;;;;;;;9.57;5.17;;;;;;;17.06;100.00;100600.17;714171;1199;114879;-71
2021/06/26 02:11:15;;;;;;;8.70;5.70;;;;;;;16.99;100.00;100588.62;714140;1202;114488;-72
2021/06/26 02:26:17;;;;;;;11.35;6.70;;;;;;;17.12;100.00;100596.85;714229;1200;113898;-71
2021/06/26 02:41:21;;;;;;;10.80;6.95;;;;;;;17.20;100.00;100606.61;714274;1202;114612;-73
2021/06/26 02:56:24;;;;;;;16.88;8.98;;;;;;;17.31;100.00;100608.05;714007;1199;114324;-71
2021/06/26 03:11:27;;;;;;;10.45;5.43;;;;;;;17.35;100.00;100608.55;714252;1176;114152;-72
2021/06/26 03:26:32;;;;;;;9.28;6.58;;;;;;;17.39;100.00;100618.63;714370;1179;114046;-72
2021/06/26 03:41:35;;;;;;;10.90;8.40;;;;;;;17.48;100.00;100619.42;714323;1203;114369;-72
2021/06/26 03:56:37;;;;;;;14.05;8.30;;;;;;;17.33;100.00;100626.44;713977;1205;114595;-72
2021/06/26 04:11:39;;;;;;;14.55;9.15;;;;;;;17.54;100.00;100617.90;714312;1202;115788;-73
2021/06/26 04:26:41;;;;;;;9.55;7.38;;;;;;;17.79;100.00;100616.79;714157;1202;115576;-72
2021/06/26 04:41:44;;;;;;;12.15;7.68;;;;;;;18.25;100.00;100620.49;714454;1199;114650;-72
2021/06/26 04:56:46;;;;;;;15.18;9.08;;;;;;;18.85;100.00;100633.95;714273;1199;114718;-72
2021/06/26 05:11:48;;;;;;;17.17;8.77;;;;;;;19.44;100.00;100641.16;716797;1165;116150;-72
2021/06/26 05:26:50;;;;;;;16.75;8.45;;;;;;;20.14;100.00;100656.70;713651;1205;115283;-74
2021/06/26 05:41:53;;;;;;;12.15;6.83;;;;;;;20.43;100.00;100664.58;713715;1200;115691;-71
2021/06/26 05:56:55;;;;;;;10.20;6.75;;;;;;;20.84;100.00;100672.92;713969;1202;115972;-72
2021/06/26 06:11:57;;;;;;;10.68;6.13;;;;;;;21.44;100.00;100673.31;713984;1199;115523;-71
2021/06/26 06:26:59;;;;;;;11.17;6.37;;;;;;;21.90;100.00;100669.22;714112;1203;114598;-73
2021/06/26 06:42:02;;;;;;;9.03;6.25;;;;;;;21.83;100.00;100671.03;714267;1199;115307;-72
2021/06/26 06:57:04;;;;;;;8.73;6.18;;;;;;;22.63;99.28;100668.53;713813;1203;114482;-74
2021/06/26 07:12:07;;;;;;;8.97;6.37;;;;;;;22.11;97.05;100670.92;714096;1178;114210;-75
2021/06/26 07:27:10;;;;;;;11.95;7.03;;;;;;;21.71;98.00;100674.30;714136;1186;113828;-78
2021/06/26 07:42:12;;;;;;;8.70;6.55;;;;;;;23.18;97.31;100672.84;714417;1200;114731;-77
2021/06/26 07:57:14;;;;;;;10.83;6.80;;;;;;;23.09;92.97;100683.73;714027;1199;115013;-75
2021/06/26 08:12:18;;;;;;;11.20;6.10;;;;;;;22.93;93.98;100679.62;715203;1178;114388;-81
2021/06/26 08:27:20;;;;;;;19.10;13.68;;;;;;;24.04;90.67;100693.11;714416;1175;114447;-72
2021/06/26 08:42:22;;;;;;;10.00;7.23;;;;;;;22.94;91.88;100697.32;714186;1200;115765;-79
2021/06/26 08:57:29;;;;;;;12.50;7.33;;;;;;;23.07;93.03;100696.48;714308;1176;114681;-81
2021/06/26 09:12:36;;;;;;;9.70;7.78;;;;;;;25.22;91.07;100688.09;714392;1177;113838;-82
2021/06/26 09:27:39;;;;;;;9.70;5.10;;;;;;;26.13;81.45;100679.38;715267;1203;113718;-80
2021/06/26 09:42:41;;;;;;;7.85;4.78;;;;;;;26.51;77.66;100671.97;715016;1179;113777;-91
2021/06/26 09:57:45;;;;;;;83.42;45.83;;;;;;;25.99;76.48;100649.14;717674;1200;113673;-91
2021/06/26 10:12:49;;;;;;;8.78;6.63;;;;;;;27.00;73.83;100648.39;714773;1199;115189;-77
2021/06/26 10:28:12;;;;;;;9.90;5.30;;;;;;;25.35;73.01;100648.73;714661;1200;115196;-76
2021/06/26 10:43:16;;;;;;;9.00;4.48;;;;;;;25.30;71.77;100644.03;714399;1176;113949;-78
2021/06/26 10:58:28;;;;;;;6.10;5.03;;;;;;;24.80;73.85;100642.28;714529;1199;114157;-76
2021/06/26 11:13:31;;;;;;;6.13;3.78;;;;;;;26.30;72.28;100631.13;714245;1199;113643;-78
2021/06/26 11:28:43;;;;;;;6.90;3.48;;;;;;;28.12;66.42;100620.39;714633;1194;113702;-77
2021/06/26 11:43:50;;;;;;;9.17;3.80;;;;;;;26.62;66.92;100624.60;714253;1200;113691;-75
2021/06/26 11:58:53;;;;;;;6.93;3.53;;;;;;;26.00;67.07;100620.39;714318;1200;113749;-73
2021/06/26 12:13:57;;;;;;;5.00;2.77;;;;;;;27.88;61.08;100609.70;714756;1202;115264;-73
2021/06/26 12:28:59;;;;;;;5.78;3.75;;;;;;;28.83;59.29;100596.38;716502;1178;113915;-93
2021/06/26 12:44:03;;;;;;;3.77;3.37;;;;;;;29.10;60.39;100576.75;718320;1202;113660;-94
2021/06/26 12:59:08;;;;;;;4.03;2.90;;;;;;;29.15;58.45;100581.38;715949;1199;113786;-74
2021/06/26 13:14:11;;;;;;;4.40;3.55;;;;;;;29.85;56.90;100557.25;715924;1203;115572;-75
2021/06/26 13:29:14;;;;;;;3.27;2.97;;;;;;;29.73;55.69;100554.72;714329;1200;114070;-76
2021/06/26 13:44:16;;;;;;;3.40;2.78;;;;;;;29.07;54.54;100538.63;720855;1200;113689;-77
2021/06/26 13:59:18;;;;;;;7.13;4.23;;;;;;;29.46;52.54;100527.73;714260;1199;114586;-76
2021/06/26 14:14:20;;;;;;;2.95;2.33;;;;;;;29.64;51.24;100519.25;715569;1200;113715;-76
2021/06/26 14:29:23;;;;;;;2.88;2.50;;;;;;;29.32;50.80;100506.52;714642;1203;114395;-77
2021/06/26 14:44:27;;;;;;;7.10;2.73;;;;;;;29.07;51.72;100503.53;714647;1199;114923;-79
2021/06/26 14:59:29;;;;;;;3.88;2.90;;;;;;;29.55;51.08;100499.17;714835;1200;114883;-75
2021/06/26 15:14:31;;;;;;;4.18;2.85;;;;;;;29.52;50.53;100491.56;715032;1200;114172;-76
2021/06/26 15:29:34;;;;;;;4.60;3.07;;;;;;;28.78;51.05;100484.84;714673;1199;113537;-76
2021/06/26 15:44:36;;;;;;;4.95;2.93;;;;;;;27.70;51.51;100497.55;715141;1199;114376;-77
2021/06/26 15:59:38;;;;;;;4.43;3.45;;;;;;;27.96;53.10;100490.70;716996;1202;114469;-77
2021/06/26 16:14:41;;;;;;;5.83;3.23;;;;;;;28.43;53.70;100480.59;714806;1202;114846;-79
2021/06/26 16:29:43;;;;;;;8.35;5.25;;;;;;;27.92;53.23;100481.47;714395;1202;113571;-81
2021/06/26 16:44:46;;;;;;;428.95;291.28;;;;;;;27.44;54.35;100474.76;714503;1199;114507;-81
2021/06/26 16:59:49;;;;;;;29.85;21.03;;;;;;;26.53;55.94;100465.47;714563;1200;114719;-76
2021/06/26 17:14:51;;;;;;;17.57;10.37;;;;;;;26.58;58.21;100468.27;714464;1176;114188;-78
2021/06/26 17:29:53;;;;;;;10.40;7.58;;;;;;;25.68;59.15;100481.81;714208;1200;113785;-77
2021/06/26 17:44:55;;;;;;;16.05;8.70;;;;;;;24.84;61.85;100471.79;714848;1199;114911;-78
2021/06/26 17:59:57;;;;;;;7.70;4.95;;;;;;;24.95;62.65;100486.30;714159;1199;114225;-78
2021/06/26 18:14:59;;;;;;;8.93;5.93;;;;;;;24.53;64.63;100486.95;717382;1199;113988;-81
2021/06/26 18:30:07;;;;;;;10.68;7.05;;;;;;;24.06;66.03;100505.38;717887;1199;113770;-80
2021/06/26 18:45:11;;;;;;;33.70;15.58;;;;;;;23.46;68.55;100513.80;716782;1175;113406;-80
2021/06/26 19:00:15;;;;;;;9.27;6.70;;;;;;;22.68;71.52;100527.03;716707;1178;114009;-82
2021/06/26 19:15:19;;;;;;;12.07;7.53;;;;;;;22.16;74.90;100542.91;715817;1200;114283;-82
2021/06/26 19:30:22;;;;;;;35.27;17.23;;;;;;;21.52;77.17;100553.05;715961;1200;115545;-88
2021/06/26 19:45:25;;;;;;;21.33;13.48;;;;;;;21.33;78.89;100570.64;715613;1177;114165;-88
2021/06/26 20:00:27;;;;;;;40.23;19.95;;;;;;;20.84;80.71;100576.95;715795;1199;114837;-86
2021/06/26 20:15:29;;;;;;;19.30;11.18;;;;;;;20.65;82.90;100605.10;716526;1199;114976;-83
2021/06/26 20:30:32;;;;;;;21.48;12.35;;;;;;;20.48;84.11;100591.23;717998;1203;115631;-82
2021/06/26 20:45:35;;;;;;;21.27;12.20;;;;;;;20.17;85.81;100603.08;717487;1177;113462;-83
2021/06/26 21:00:37;;;;;;;13.88;8.55;;;;;;;19.75;86.99;100608.14;716855;1200;114178;-83
2021/06/26 21:15:40;;;;;;;10.10;6.53;;;;;;;19.45;88.39;100617.02;716441;1200;115461;-83
2021/06/26 21:30:42;;;;;;;9.73;5.68;;;;;;;19.52;90.33;100626.89;715648;1199;114104;-83
2021/06/26 21:45:44;;;;;;;9.25;5.60;;;;;;;19.44;91.33;100612.70;715199;1199;114539;-83
2021/06/26 22:00:53;;;;;;;8.28;5.10;;;;;;;19.37;91.68;100587.84;715449;1199;114993;-91
2021/06/26 22:15:56;;;;;;;7.25;4.88;;;;;;;19.44;91.66;100588.77;715952;1193;113711;-89
2021/06/26 22:30:59;;;;;;;7.95;4.95;;;;;;;19.22;91.75;100571.91;715748;1177;113641;-88
2021/06/26 22:46:02;;;;;;;6.60;4.17;;;;;;;18.57;93.90;100582.22;715671;1200;114108;-87
2021/06/26 23:01:04;;;;;;;6.45;4.90;;;;;;;18.36;95.45;100579.44;715696;1203;113848;-88
2021/06/26 23:16:07;;;;;;;7.20;4.77;;;;;;;18.24;96.43;100576.39;715772;1200;114354;-88
2021/06/26 23:31:09;;;;;;;12.63;7.10;;;;;;;18.07;97.38;100576.50;715874;1200;114055;-88
2021/06/26 23:46:11;;;;;;;11.10;6.10;;;;;;;17.90;98.24;100575.75;715615;1177;113981;-89
